Golden Valley, Nevada
Current Conditions -  °F | °C
As of 12:15 PM on Wednesday 28 Jan 2015 (Local Time) from KRTS Reporting Station
Clear Clear  
Wind Chill: 48°   Ceiling: Unl
Heat Index: 48°   Visibility: 10mi
Dew Point: 25°   Wind: 3mph
Humidity: 40%   Direction: 150°SSE
Pressure: 30.31"   Gusts: NA
Location:  39.7378°N, 119.889°W
Report Text: KRTS 282015Z AUTO 15003KT 10SM CLR 09/M04 A3031 RMK AO2
Loading
Personal Weather Stations






























Interactive Weather Map New forecast layout! Learn more

10-Day Weather Forecast

Advertisements
Track Severe Weather on mobile